createdAt,value
2022-12-15T00:00:55.006Z,22.50
2022-12-15T00:01:54.981Z,20.00
2022-12-15T00:02:55.091Z,17.10
2022-12-15T00:03:54.948Z,25.70
2022-12-15T00:04:54.921Z,23.70
2022-12-15T00:05:54.880Z,25.90
2022-12-15T00:06:54.931Z,31.80
2022-12-15T00:07:54.887Z,32.20
2022-12-15T00:08:54.914Z,33.50
2022-12-15T00:09:54.936Z,43.50
2022-12-15T00:10:54.940Z,35.80
2022-12-15T00:11:54.901Z,39.80
2022-12-15T00:12:54.851Z,33.40
2022-12-15T00:13:54.872Z,38.10
2022-12-15T00:14:54.842Z,26.20
2022-12-15T00:15:54.926Z,34.50
2022-12-15T00:16:54.803Z,34.90
2022-12-15T00:17:54.811Z,31.40
2022-12-15T00:18:54.815Z,31.50
2022-12-15T00:19:54.800Z,36.90
2022-12-15T00:20:54.823Z,28.60
2022-12-15T00:21:54.827Z,34.50
2022-12-15T00:22:54.803Z,32.90
2022-12-15T00:23:54.782Z,33.60
2022-12-15T00:24:54.788Z,34.70
2022-12-15T00:25:54.797Z,33.70
2022-12-15T00:26:54.814Z,35.20
2022-12-15T00:27:54.856Z,33.80
2022-12-15T00:28:54.813Z,30.10
2022-12-15T00:29:54.793Z,34.60
2022-12-15T00:31:00.450Z,34.90
2022-12-15T00:31:56.827Z,27.10
2022-12-15T00:32:54.735Z,29.10
2022-12-15T00:33:54.739Z,33.20
2022-12-15T00:34:54.731Z,35.50
2022-12-15T00:35:54.718Z,35.50
2022-12-15T00:36:54.717Z,31.30
2022-12-15T00:37:54.717Z,32.30
2022-12-15T00:38:58.066Z,39.50
2022-12-15T00:39:55.665Z,28.00
2022-12-15T00:40:54.660Z,35.40
2022-12-15T00:41:54.667Z,26.40
2022-12-15T00:42:54.676Z,30.00
2022-12-15T00:43:54.683Z,35.30
2022-12-15T00:44:54.713Z,28.90
2022-12-15T00:45:54.701Z,27.90
2022-12-15T00:46:54.861Z,27.60
2022-12-15T00:47:54.661Z,29.90
2022-12-15T00:48:54.710Z,30.40
2022-12-15T00:49:54.877Z,29.20
2022-12-15T00:50:54.681Z,28.10
2022-12-15T00:51:54.701Z,29.70
2022-12-15T00:52:54.681Z,27.10
2022-12-15T00:53:54.645Z,29.60
2022-12-15T00:54:54.676Z,26.30
2022-12-15T00:55:54.567Z,23.50
2022-12-15T00:56:54.661Z,29.50
2022-12-15T00:57:54.580Z,28.50
2022-12-15T00:58:54.853Z,23.50
2022-12-15T00:59:54.572Z,34.20
2022-12-15T01:00:55.532Z,30.90
2022-12-15T01:01:54.625Z,30.20
2022-12-15T01:02:54.756Z,37.30
2022-12-15T01:03:54.761Z,37.50
2022-12-15T01:04:54.564Z,36.80
2022-12-15T01:05:54.494Z,30.60
2022-12-15T01:06:54.583Z,36.90
2022-12-15T01:07:54.518Z,35.40
2022-12-15T01:08:54.492Z,31.60
2022-12-15T01:09:54.490Z,28.00
2022-12-15T01:10:54.516Z,31.30
2022-12-15T01:11:54.489Z,33.30
2022-12-15T01:12:54.466Z,32.50
2022-12-15T01:13:54.505Z,30.10
2022-12-15T01:14:54.451Z,27.20
2022-12-15T01:15:54.510Z,34.30
2022-12-15T01:16:54.439Z,35.70
2022-12-15T01:17:54.481Z,35.80
2022-12-15T01:18:54.426Z,41.20
2022-12-15T01:19:54.434Z,36.00
2022-12-15T01:20:54.450Z,36.60
2022-12-15T01:21:54.434Z,37.40
2022-12-15T01:22:54.424Z,30.50
2022-12-15T01:23:54.416Z,31.00
2022-12-15T01:24:54.397Z,32.90
2022-12-15T01:25:54.420Z,26.20
2022-12-15T01:26:54.370Z,28.10
2022-12-15T01:27:54.378Z,32.90
2022-12-15T01:28:54.416Z,28.60
2022-12-15T01:29:54.380Z,33.70
2022-12-15T01:30:54.360Z,24.20
2022-12-15T01:31:54.411Z,23.30
2022-12-15T01:32:54.365Z,21.00
2022-12-15T01:33:54.347Z,25.90
2022-12-15T01:34:54.318Z,21.00
2022-12-15T01:35:54.317Z,19.90
2022-12-15T01:36:54.326Z,27.00
2022-12-15T01:37:54.337Z,18.70
2022-12-15T01:38:54.737Z,20.40
2022-12-15T01:39:55.292Z,22.30
2022-12-15T01:40:54.286Z,21.20
2022-12-15T01:41:54.301Z,20.40
2022-12-15T01:42:54.269Z,22.40
2022-12-15T01:43:54.315Z,18.30
2022-12-15T01:44:54.299Z,20.00
2022-12-15T01:45:54.266Z,17.70
2022-12-15T01:46:54.306Z,21.50
2022-12-15T01:47:54.301Z,28.90
2022-12-15T01:48:54.219Z,23.00
2022-12-15T01:49:54.270Z,25.20
2022-12-15T01:50:54.198Z,21.10
2022-12-15T01:51:54.229Z,24.30
2022-12-15T01:52:54.231Z,20.30
2022-12-15T01:53:54.221Z,20.10
2022-12-15T01:54:54.256Z,28.00
2022-12-15T01:55:54.211Z,23.20
2022-12-15T01:56:54.252Z,26.50
2022-12-15T01:57:54.163Z,20.60
2022-12-15T01:58:54.215Z,24.80
2022-12-15T01:59:54.155Z,17.80
2022-12-15T02:00:54.202Z,18.00
2022-12-15T02:01:54.264Z,19.90
2022-12-15T02:02:54.296Z,29.90
2022-12-15T02:03:54.141Z,25.50
2022-12-15T02:04:54.117Z,27.10
2022-12-15T02:05:54.128Z,22.90
2022-12-15T02:06:54.165Z,24.60
2022-12-15T02:07:54.146Z,23.10
2022-12-15T02:08:54.103Z,28.10
2022-12-15T02:09:54.078Z,27.30
2022-12-15T02:10:54.098Z,28.10
2022-12-15T02:11:54.119Z,29.80
2022-12-15T02:12:54.160Z,47.10
2022-12-15T02:13:55.154Z,48.60
2022-12-15T02:14:54.443Z,44.60
2022-12-15T02:15:54.106Z,44.00
2022-12-15T02:16:54.049Z,43.30
2022-12-15T02:17:54.312Z,47.00
2022-12-15T02:18:54.026Z,36.60
2022-12-15T02:19:54.916Z,39.60
2022-12-15T02:20:55.019Z,44.00
2022-12-15T02:21:54.100Z,32.70
2022-12-15T02:22:54.010Z,41.90
2022-12-15T02:23:54.073Z,40.30
2022-12-15T02:24:54.095Z,47.20
2022-12-15T02:25:54.263Z,46.30
2022-12-15T02:26:53.983Z,54.20
2022-12-15T02:27:54.619Z,46.00
2022-12-15T02:28:53.954Z,45.10
2022-12-15T02:29:54.242Z,45.70
2022-12-15T02:30:53.925Z,40.90
2022-12-15T02:31:54.211Z,45.70
2022-12-15T02:32:54.003Z,43.40
2022-12-15T02:33:54.106Z,42.10
2022-12-15T02:34:53.940Z,44.80
2022-12-15T02:35:54.003Z,38.60
2022-12-15T02:36:54.179Z,41.00
2022-12-15T02:37:53.903Z,47.10
2022-12-15T02:38:54.202Z,50.40
2022-12-15T02:39:54.279Z,49.70
2022-12-15T02:40:53.931Z,51.80
2022-12-15T02:41:54.375Z,52.70
2022-12-15T02:42:53.868Z,52.80
2022-12-15T02:43:54.024Z,37.00
2022-12-15T02:44:54.096Z,27.90
2022-12-15T02:45:54.124Z,30.00
2022-12-15T02:46:53.839Z,30.90
2022-12-15T02:47:54.232Z,30.10
2022-12-15T02:48:53.829Z,35.70
2022-12-15T02:49:54.327Z,41.40
2022-12-15T02:50:53.798Z,27.30
2022-12-15T02:51:54.021Z,30.00
2022-12-15T02:52:53.829Z,27.10
2022-12-15T02:53:54.074Z,25.00
2022-12-15T02:54:53.835Z,28.30
2022-12-15T02:55:53.779Z,27.50
2022-12-15T02:56:53.771Z,31.80
2022-12-15T02:57:53.864Z,41.70
2022-12-15T02:58:53.774Z,40.60
2022-12-15T02:59:53.774Z,44.80
2022-12-15T03:00:53.823Z,43.70
2022-12-15T03:01:53.926Z,41.80
2022-12-15T03:02:53.914Z,43.40
2022-12-15T03:03:53.731Z,47.90
2022-12-15T03:04:53.742Z,40.50
2022-12-15T03:05:53.738Z,33.90
2022-12-15T03:06:59.020Z,32.70
2022-12-15T03:07:55.694Z,26.80
2022-12-15T03:08:53.685Z,25.40
2022-12-15T03:09:53.667Z,25.20
2022-12-15T03:10:53.712Z,29.60
2022-12-15T03:11:53.709Z,21.50
2022-12-15T03:12:53.874Z,24.50
2022-12-15T03:13:53.644Z,21.70
2022-12-15T03:14:53.649Z,29.40
2022-12-15T03:15:53.663Z,22.40
2022-12-15T03:16:53.729Z,20.70
2022-12-15T03:17:53.660Z,20.20
2022-12-15T03:18:53.625Z,20.90
2022-12-15T03:19:53.618Z,26.80
2022-12-15T03:20:53.664Z,23.80
2022-12-15T03:21:53.589Z,22.60
2022-12-15T03:22:53.640Z,19.80
2022-12-15T03:23:53.602Z,23.60
2022-12-15T03:24:53.627Z,24.70
2022-12-15T03:25:53.596Z,17.40
2022-12-15T03:26:53.573Z,18.70
2022-12-15T03:27:53.587Z,21.00
2022-12-15T03:28:53.580Z,15.80
2022-12-15T03:29:53.583Z,23.20
2022-12-15T03:30:53.560Z,24.20
2022-12-15T03:31:53.585Z,21.90
2022-12-15T03:32:53.505Z,23.90
2022-12-15T03:33:53.553Z,18.40
2022-12-15T03:34:53.507Z,21.60
2022-12-15T03:35:53.570Z,19.80
2022-12-15T03:36:53.493Z,22.00
2022-12-15T03:37:53.486Z,24.60
2022-12-15T03:38:53.482Z,22.90
2022-12-15T03:39:53.545Z,23.00
2022-12-15T03:40:53.486Z,20.70
2022-12-15T03:41:53.483Z,21.40
2022-12-15T03:42:53.460Z,22.30
2022-12-15T03:43:53.469Z,23.90
2022-12-15T03:44:53.502Z,18.30
2022-12-15T03:45:53.544Z,18.00
2022-12-15T03:46:54.590Z,21.10
2022-12-15T03:47:53.468Z,26.90
2022-12-15T03:48:53.425Z,23.70
2022-12-15T03:49:53.427Z,27.60
2022-12-15T03:50:53.434Z,22.90
2022-12-15T03:51:53.455Z,24.60
2022-12-15T03:52:53.452Z,32.30
2022-12-15T03:53:53.413Z,36.10
2022-12-15T03:54:53.394Z,33.70
2022-12-15T03:55:53.392Z,38.90
2022-12-15T03:56:53.382Z,39.40
2022-12-15T03:57:53.373Z,35.60
2022-12-15T03:58:53.414Z,35.40
2022-12-15T03:59:53.360Z,36.20
2022-12-15T04:00:53.414Z,36.00
2022-12-15T04:01:53.532Z,41.60
2022-12-15T04:02:53.520Z,38.30
2022-12-15T04:04:00.041Z,33.70
2022-12-15T04:04:55.353Z,40.10
2022-12-15T04:05:53.328Z,41.50
2022-12-15T04:06:53.313Z,39.70
2022-12-15T04:07:53.372Z,34.90
2022-12-15T04:08:53.298Z,35.40
2022-12-15T04:09:53.341Z,35.80
2022-12-15T04:10:53.300Z,42.60
2022-12-15T04:11:53.303Z,38.70
2022-12-15T04:12:53.307Z,40.90
2022-12-15T04:13:53.263Z,41.20
2022-12-15T04:14:53.255Z,37.70
2022-12-15T04:15:53.281Z,34.50
2022-12-15T04:16:53.340Z,38.70
2022-12-15T04:17:53.250Z,35.70
2022-12-15T04:18:53.251Z,35.00
2022-12-15T04:19:53.245Z,49.60
2022-12-15T04:20:53.283Z,41.30
2022-12-15T04:21:53.253Z,46.10
2022-12-15T04:22:53.237Z,44.10
2022-12-15T04:23:53.203Z,40.60
2022-12-15T04:24:53.209Z,45.60
2022-12-15T04:25:53.212Z,48.70
2022-12-15T04:26:53.193Z,41.00
2022-12-15T04:27:55.924Z,40.70
2022-12-15T04:28:55.175Z,46.80
2022-12-15T04:29:53.187Z,46.40
2022-12-15T04:30:53.191Z,49.40
2022-12-15T04:31:53.181Z,40.60
2022-12-15T04:32:53.150Z,40.20
2022-12-15T04:33:53.153Z,42.80
2022-12-15T04:34:53.121Z,35.70
2022-12-15T04:35:53.123Z,40.50
2022-12-15T04:36:53.149Z,39.80
2022-12-15T04:37:53.147Z,35.60
2022-12-15T04:38:53.112Z,37.30
2022-12-15T04:39:53.126Z,38.00
2022-12-15T04:40:53.106Z,39.00
2022-12-15T04:41:53.118Z,42.90
2022-12-15T04:42:53.086Z,46.90
2022-12-15T04:43:53.088Z,47.20
2022-12-15T04:44:53.055Z,49.20
2022-12-15T04:45:53.101Z,42.00
2022-12-15T04:46:53.060Z,47.30
2022-12-15T04:47:53.060Z,37.80
2022-12-15T04:48:53.049Z,47.50
2022-12-15T04:49:53.031Z,39.50
2022-12-15T04:50:53.033Z,44.90
2022-12-15T04:51:53.032Z,45.40
2022-12-15T04:52:53.006Z,42.40
2022-12-15T04:53:53.007Z,45.80
2022-12-15T04:54:52.993Z,43.30
2022-12-15T04:55:52.971Z,45.20
2022-12-15T04:56:52.971Z,48.90
2022-12-15T04:57:52.966Z,46.40
2022-12-15T04:58:52.994Z,51.80
2022-12-15T04:59:52.980Z,51.30
2022-12-15T05:00:52.973Z,49.10
2022-12-15T05:01:53.046Z,48.30
2022-12-15T05:02:52.972Z,51.70
2022-12-15T05:03:53.015Z,49.50
2022-12-15T05:04:52.974Z,53.30
2022-12-15T05:05:52.921Z,50.80
2022-12-15T05:06:52.960Z,49.60
2022-12-15T05:07:52.925Z,46.90
2022-12-15T05:08:52.900Z,51.40
2022-12-15T05:09:52.961Z,56.20
2022-12-15T05:10:52.896Z,51.00
2022-12-15T05:11:52.923Z,53.60
2022-12-15T05:12:52.867Z,47.40
2022-12-15T05:13:52.861Z,46.50
2022-12-15T05:14:52.889Z,53.60
2022-12-15T05:15:52.933Z,59.70
2022-12-15T05:16:52.933Z,52.80
2022-12-15T05:17:52.864Z,58.60
2022-12-15T05:18:52.831Z,53.50
2022-12-15T05:19:52.838Z,50.50
2022-12-15T05:20:52.870Z,56.30
2022-12-15T05:21:52.833Z,56.10
2022-12-15T05:22:52.814Z,55.60
2022-12-15T05:23:52.824Z,47.40
2022-12-15T05:24:52.812Z,52.30
2022-12-15T05:25:52.842Z,49.50
2022-12-15T05:26:53.480Z,52.40
2022-12-15T05:27:53.792Z,48.50
2022-12-15T05:28:52.786Z,46.10
2022-12-15T05:29:52.849Z,48.40
2022-12-15T05:30:52.814Z,47.70
2022-12-15T05:31:52.794Z,51.80
2022-12-15T05:32:52.771Z,47.20
2022-12-15T05:33:52.760Z,53.10
2022-12-15T05:34:52.770Z,55.50
2022-12-15T05:35:52.764Z,55.80
2022-12-15T05:36:52.734Z,60.20
2022-12-15T05:37:52.760Z,57.20
2022-12-15T05:38:52.895Z,53.00
2022-12-15T05:39:52.741Z,56.20
2022-12-15T05:40:52.741Z,55.20
2022-12-15T05:41:52.707Z,49.40
2022-12-15T05:42:53.719Z,51.80
2022-12-15T05:43:52.729Z,50.20
2022-12-15T05:44:53.711Z,52.70
2022-12-15T05:45:52.742Z,52.30
2022-12-15T05:46:52.702Z,51.90
2022-12-15T05:47:52.660Z,54.40
2022-12-15T05:48:52.663Z,53.90
2022-12-15T05:49:52.654Z,57.00
2022-12-15T05:50:52.686Z,58.60
2022-12-15T05:51:52.691Z,52.20
2022-12-15T05:52:52.643Z,57.20
2022-12-15T05:53:52.626Z,48.70
2022-12-15T05:54:52.663Z,48.70
2022-12-15T05:55:52.630Z,50.80
2022-12-15T05:56:52.598Z,53.90
2022-12-15T05:57:52.625Z,50.10
2022-12-15T05:58:52.602Z,49.90
2022-12-15T05:59:52.629Z,52.10
2022-12-15T06:00:52.624Z,51.90
2022-12-15T06:01:52.642Z,50.00
2022-12-15T06:02:52.648Z,53.00
2022-12-15T06:03:52.562Z,53.00
2022-12-15T06:04:52.657Z,59.50
2022-12-15T06:05:56.408Z,54.30
2022-12-15T06:06:53.560Z,55.10
2022-12-15T06:07:52.586Z,53.30
2022-12-15T06:08:52.567Z,54.40
2022-12-15T06:09:52.554Z,52.50
2022-12-15T06:10:52.594Z,51.00
2022-12-15T06:11:52.541Z,46.90
2022-12-15T06:12:52.532Z,50.80
2022-12-15T06:13:52.508Z,53.60
2022-12-15T06:14:52.512Z,58.80
2022-12-15T06:15:52.545Z,55.10
2022-12-15T06:16:52.555Z,52.90
2022-12-15T06:17:52.515Z,52.90
2022-12-15T06:18:52.502Z,53.20
2022-12-15T06:19:52.477Z,53.30
2022-12-15T06:20:52.466Z,56.50
2022-12-15T06:21:53.524Z,59.70
2022-12-15T06:22:52.434Z,52.10
2022-12-15T06:23:52.488Z,54.70
2022-12-15T06:24:52.449Z,52.00
2022-12-15T06:25:52.453Z,52.40
2022-12-15T06:26:52.432Z,55.90
2022-12-15T06:27:55.789Z,51.90
2022-12-15T06:28:53.431Z,58.40
2022-12-15T06:29:52.426Z,63.80
2022-12-15T06:30:52.457Z,58.40
2022-12-15T06:31:52.471Z,58.40
2022-12-15T06:32:52.448Z,62.50
2022-12-15T06:33:57.529Z,64.80
2022-12-15T06:34:54.377Z,65.60
2022-12-15T06:35:52.382Z,56.90
2022-12-15T06:36:52.449Z,60.60
2022-12-15T06:37:52.413Z,57.70
2022-12-15T06:38:52.353Z,55.80
2022-12-15T06:39:52.416Z,58.70
2022-12-15T06:40:52.343Z,62.10
2022-12-15T06:41:52.325Z,57.30
2022-12-15T06:42:52.339Z,58.50
2022-12-15T06:43:52.322Z,62.60
2022-12-15T06:44:52.512Z,63.20
2022-12-15T06:45:52.321Z,60.20
2022-12-15T06:46:52.371Z,58.50
2022-12-15T06:47:56.520Z,60.40
2022-12-15T06:48:53.346Z,63.40
2022-12-15T06:49:52.344Z,65.10
2022-12-15T06:50:52.299Z,65.50
2022-12-15T06:51:52.284Z,68.70
2022-12-15T06:52:52.249Z,68.20
2022-12-15T06:53:52.268Z,70.30
2022-12-15T06:54:52.299Z,69.20
2022-12-15T06:55:52.269Z,63.00
2022-12-15T06:56:52.436Z,69.30
2022-12-15T06:57:52.232Z,69.90
2022-12-15T06:58:52.235Z,71.80
2022-12-15T06:59:52.285Z,64.80
2022-12-15T07:00:52.345Z,69.50
2022-12-15T07:01:52.375Z,69.20
2022-12-15T07:02:52.347Z,69.80
2022-12-15T07:03:52.503Z,67.50
2022-12-15T07:04:52.200Z,63.30
2022-12-15T07:05:52.227Z,64.80
2022-12-15T07:06:52.211Z,61.80
2022-12-15T07:07:52.182Z,55.10
2022-12-15T07:08:52.162Z,57.20
2022-12-15T07:09:52.173Z,56.20
2022-12-15T07:10:52.174Z,56.20
2022-12-15T07:11:52.183Z,55.60
2022-12-15T07:12:52.150Z,56.80
2022-12-15T07:13:52.188Z,60.70
2022-12-15T07:14:53.697Z,55.00
2022-12-15T07:15:53.158Z,57.60
2022-12-15T07:16:52.140Z,57.80
2022-12-15T07:17:52.128Z,56.90
2022-12-15T07:18:52.117Z,60.40
2022-12-15T07:19:52.117Z,59.10
2022-12-15T07:20:52.092Z,59.10
2022-12-15T07:21:52.185Z,62.90
2022-12-15T07:22:52.180Z,62.10
2022-12-15T07:23:55.421Z,62.80
2022-12-15T07:24:53.077Z,60.70
2022-12-15T07:25:52.055Z,54.40
2022-12-15T07:26:52.188Z,56.60
2022-12-15T07:27:52.087Z,56.50
2022-12-15T07:28:52.050Z,54.20
2022-12-15T07:29:52.043Z,51.60
2022-12-15T07:30:52.123Z,59.20
2022-12-15T07:31:52.128Z,58.90
2022-12-15T07:32:53.137Z,54.10
2022-12-15T07:33:52.124Z,56.90
2022-12-15T07:34:52.012Z,57.10
2022-12-15T07:35:52.037Z,56.50
2022-12-15T07:36:52.847Z,59.50
2022-12-15T07:37:53.007Z,60.20
2022-12-15T07:38:52.172Z,68.50
2022-12-15T07:39:52.013Z,95.00
2022-12-15T07:40:52.127Z,109.70
2022-12-15T07:41:51.990Z,138.70
2022-12-15T07:42:51.977Z,134.90
2022-12-15T07:43:51.954Z,108.90
2022-12-15T07:44:51.985Z,113.40
2022-12-15T07:45:52.076Z,105.50
2022-12-15T07:46:51.969Z,100.80
2022-12-15T07:47:51.950Z,105.90
2022-12-15T07:48:51.923Z,102.80
2022-12-15T07:49:51.923Z,105.20
2022-12-15T07:50:51.933Z,98.90
2022-12-15T07:51:51.923Z,84.00
2022-12-15T07:52:51.904Z,74.80
2022-12-15T07:53:51.890Z,67.70
2022-12-15T07:54:51.869Z,65.80
2022-12-15T07:56:07.066Z,69.60
2022-12-15T07:56:53.894Z,72.90
2022-12-15T07:57:51.878Z,69.70
2022-12-15T07:58:51.880Z,70.40
2022-12-15T07:59:51.849Z,75.10
2022-12-15T08:00:51.876Z,68.20
2022-12-15T08:01:52.079Z,57.20
2022-12-15T08:02:52.002Z,63.00
2022-12-15T08:03:51.940Z,72.30
2022-12-15T08:04:52.806Z,69.90
2022-12-15T08:05:51.901Z,66.60
2022-12-15T08:06:51.840Z,67.20
2022-12-15T08:07:51.826Z,67.80
2022-12-15T08:08:51.784Z,64.60
2022-12-15T08:09:51.772Z,68.50
2022-12-15T08:10:51.819Z,73.30
2022-12-15T08:11:51.806Z,74.00
2022-12-15T08:12:51.799Z,73.50
2022-12-15T08:14:11.973Z,68.40
2022-12-15T08:14:53.762Z,84.90
2022-12-15T08:15:51.742Z,85.10
2022-12-15T08:16:51.800Z,83.50
2022-12-15T08:17:51.780Z,81.30
2022-12-15T08:18:51.726Z,80.70
2022-12-15T08:19:55.688Z,91.80
2022-12-15T08:20:52.715Z,85.10
2022-12-15T08:21:51.719Z,91.90
2022-12-15T08:22:51.688Z,89.10
2022-12-15T08:23:51.684Z,87.70
2022-12-15T08:24:51.682Z,83.50
2022-12-15T08:25:51.677Z,81.80
2022-12-15T08:26:51.687Z,84.70
2022-12-15T08:27:51.694Z,86.90
2022-12-15T08:28:51.692Z,87.60
2022-12-15T08:29:52.564Z,88.90
2022-12-15T08:30:52.647Z,92.90
2022-12-15T08:31:51.779Z,96.30
2022-12-15T08:32:52.231Z,93.40
2022-12-15T08:33:52.614Z,90.70
2022-12-15T08:34:51.666Z,91.50
2022-12-15T08:35:57.220Z,102.60
2022-12-15T08:36:53.653Z,96.40
2022-12-15T08:37:51.649Z,96.70
2022-12-15T08:38:51.593Z,87.70
2022-12-15T08:39:51.628Z,89.40
2022-12-15T08:40:51.579Z,90.40
2022-12-15T08:41:52.612Z,96.30
2022-12-15T08:42:51.623Z,90.00
2022-12-15T08:43:51.567Z,88.10
2022-12-15T08:44:51.587Z,89.50
2022-12-15T08:45:51.712Z,85.30
2022-12-15T08:46:51.574Z,87.30
2022-12-15T08:47:51.571Z,81.40
2022-12-15T08:48:51.550Z,88.40
2022-12-15T08:49:51.583Z,76.50
2022-12-15T08:50:51.522Z,73.20
2022-12-15T08:51:51.562Z,80.50
2022-12-15T08:53:21.344Z,86.50
2022-12-15T08:53:53.518Z,82.20
2022-12-15T08:54:51.548Z,75.70
2022-12-15T08:55:51.508Z,95.80
2022-12-15T08:56:51.485Z,96.70
2022-12-15T08:57:51.494Z,91.40
2022-12-15T08:58:51.474Z,93.50
2022-12-15T08:59:51.574Z,94.50
2022-12-15T09:00:51.508Z,96.50
2022-12-15T09:01:51.718Z,93.80
2022-12-15T09:02:51.518Z,103.50
2022-12-15T09:03:51.570Z,101.30
2022-12-15T09:04:51.526Z,102.40
2022-12-15T09:05:51.416Z,108.80
2022-12-15T09:06:51.447Z,108.80
2022-12-15T09:07:51.430Z,97.80
2022-12-15T09:08:51.513Z,108.00
2022-12-15T09:09:51.462Z,102.80
2022-12-15T09:10:52.487Z,106.00
2022-12-15T09:11:51.389Z,90.00
2022-12-15T09:12:51.469Z,81.60
2022-12-15T09:13:51.415Z,78.80
2022-12-15T09:14:51.372Z,90.50
2022-12-15T09:16:53.446Z,88.00
2022-12-15T09:17:51.373Z,87.60
2022-12-15T09:18:51.362Z,81.00
2022-12-15T09:19:51.365Z,77.70
2022-12-15T09:20:51.395Z,79.30
2022-12-15T09:21:51.376Z,71.70
2022-12-15T09:22:51.359Z,80.80
2022-12-15T09:23:51.327Z,75.60
2022-12-15T09:24:51.341Z,83.60
2022-12-15T09:25:51.310Z,78.20
2022-12-15T09:26:51.446Z,83.60
2022-12-15T09:27:51.319Z,81.50
2022-12-15T09:28:51.395Z,77.90
2022-12-15T09:29:51.295Z,88.60
2022-12-15T09:30:51.298Z,76.70
2022-12-15T09:31:51.279Z,77.30
2022-12-15T09:32:51.317Z,83.30
2022-12-15T09:33:51.290Z,72.10
2022-12-15T09:34:51.593Z,81.50
2022-12-15T09:35:51.260Z,80.70
2022-12-15T09:36:51.280Z,71.70
2022-12-15T09:37:51.954Z,74.70
2022-12-15T09:38:52.227Z,68.60
2022-12-15T09:39:51.244Z,70.10
2022-12-15T09:40:51.258Z,74.60
2022-12-15T09:41:51.242Z,80.20
2022-12-15T09:43:05.045Z,93.50
2022-12-15T09:43:53.643Z,88.50
2022-12-15T09:44:51.244Z,79.70
2022-12-15T09:45:51.261Z,83.00
2022-12-15T09:46:51.233Z,79.60
2022-12-15T09:47:51.209Z,80.30
2022-12-15T09:48:51.258Z,79.00
2022-12-15T09:49:51.190Z,74.60
2022-12-15T09:50:51.221Z,76.30
2022-12-15T09:51:51.177Z,80.90
2022-12-15T09:52:51.213Z,79.60
2022-12-15T09:53:55.935Z,79.10
2022-12-15T09:54:53.266Z,77.80
2022-12-15T09:55:51.189Z,79.10
2022-12-15T09:56:51.170Z,83.70
2022-12-15T09:57:51.211Z,79.60
2022-12-15T09:58:51.152Z,84.00
2022-12-15T09:59:51.305Z,83.40
2022-12-15T10:00:52.645Z,80.80
2022-12-15T10:01:52.156Z,80.90
2022-12-15T10:02:51.174Z,82.50
2022-12-15T10:03:51.169Z,80.20
2022-12-15T10:04:51.084Z,76.00
2022-12-15T10:06:14.729Z,83.60
2022-12-15T10:06:53.085Z,88.80
2022-12-15T10:07:51.108Z,84.60
2022-12-15T10:08:51.061Z,79.20
2022-12-15T10:09:51.109Z,90.70
2022-12-15T10:10:51.091Z,78.20
2022-12-15T10:11:51.202Z,84.20
2022-12-15T10:13:53.036Z,84.30
2022-12-15T10:14:51.037Z,82.70
2022-12-15T10:15:51.062Z,90.50
2022-12-15T10:16:51.049Z,80.00
2022-12-15T10:17:51.020Z,79.70
2022-12-15T10:18:53.622Z,84.20
2022-12-15T10:19:52.113Z,84.80
2022-12-15T10:20:50.998Z,81.80
2022-12-15T10:21:51.029Z,87.80
2022-12-15T10:22:51.017Z,87.30
2022-12-15T10:23:51.042Z,88.30
2022-12-15T10:25:52.956Z,94.80
2022-12-15T10:26:50.982Z,95.70
2022-12-15T10:27:50.948Z,95.30
2022-12-15T10:28:51.320Z,94.00
2022-12-15T10:29:51.237Z,94.50
2022-12-15T10:30:50.999Z,97.00
2022-12-15T10:31:50.943Z,95.00
2022-12-15T10:32:51.292Z,96.20
2022-12-15T10:33:51.922Z,105.50
2022-12-15T10:34:50.948Z,95.00
2022-12-15T10:35:50.923Z,104.70
2022-12-15T10:36:50.896Z,97.00
2022-12-15T10:37:50.963Z,103.90
2022-12-15T10:38:50.951Z,99.80
2022-12-15T10:39:50.884Z,96.60
2022-12-15T10:40:51.165Z,101.10
2022-12-15T10:41:50.963Z,93.70
2022-12-15T10:42:50.918Z,87.90
2022-12-15T10:43:50.891Z,102.10
2022-12-15T10:44:51.847Z,100.10
2022-12-15T10:45:50.934Z,106.40
2022-12-15T10:46:50.927Z,99.30
2022-12-15T10:47:50.839Z,100.80
2022-12-15T10:48:51.589Z,103.30
2022-12-15T10:49:50.865Z,99.10
2022-12-15T10:50:50.833Z,100.10
2022-12-15T10:51:50.812Z,99.60
2022-12-15T10:52:50.816Z,100.90
2022-12-15T10:53:50.996Z,97.40
2022-12-15T10:54:50.827Z,105.80
2022-12-15T10:55:50.786Z,100.80
2022-12-15T10:56:50.778Z,102.00
2022-12-15T10:57:50.795Z,102.80
2022-12-15T10:58:50.774Z,111.90
2022-12-15T10:59:50.795Z,107.00
2022-12-15T11:00:51.159Z,100.80
2022-12-15T11:01:51.097Z,100.20
2022-12-15T11:02:50.852Z,97.60
2022-12-15T11:03:50.934Z,99.00
2022-12-15T11:04:50.765Z,97.40
2022-12-15T11:05:50.724Z,104.00
2022-12-15T11:06:50.722Z,98.70
2022-12-15T11:07:50.810Z,100.70
2022-12-15T11:08:50.831Z,94.30
2022-12-15T11:09:50.990Z,97.50
2022-12-15T11:10:50.701Z,96.20
2022-12-15T11:11:50.732Z,91.70
2022-12-15T11:12:50.830Z,101.90
2022-12-15T11:13:50.791Z,101.60
2022-12-15T11:14:51.224Z,94.40
2022-12-15T11:15:51.121Z,100.00
2022-12-15T11:16:50.673Z,96.00
2022-12-15T11:17:50.686Z,98.60
2022-12-15T11:18:50.659Z,102.00
2022-12-15T11:19:52.222Z,101.20
2022-12-15T11:20:50.668Z,98.70
2022-12-15T11:21:50.670Z,92.60
2022-12-15T11:22:50.625Z,93.70
2022-12-15T11:23:50.644Z,100.60
2022-12-15T11:24:50.629Z,102.90
2022-12-15T11:25:50.620Z,93.90
2022-12-15T11:26:50.647Z,93.60
2022-12-15T11:27:50.628Z,89.20
2022-12-15T11:28:50.591Z,86.40
2022-12-15T11:29:50.579Z,87.10
2022-12-15T11:30:50.600Z,98.50
2022-12-15T11:31:50.592Z,92.40
2022-12-15T11:32:50.606Z,95.20
2022-12-15T11:33:50.587Z,90.10
2022-12-15T11:34:50.570Z,87.70
2022-12-15T11:35:50.609Z,88.50
2022-12-15T11:36:50.593Z,86.90
2022-12-15T11:37:50.610Z,86.40
2022-12-15T11:38:50.895Z,92.60
2022-12-15T11:39:50.537Z,90.00
2022-12-15T11:40:50.671Z,94.70
2022-12-15T11:41:50.563Z,99.40
2022-12-15T11:42:50.534Z,101.20
2022-12-15T11:43:50.618Z,98.00
2022-12-15T11:44:50.514Z,94.90
2022-12-15T11:45:50.514Z,95.10
2022-12-15T11:46:50.533Z,102.80
2022-12-15T11:47:50.969Z,86.60
2022-12-15T11:48:50.720Z,86.30
2022-12-15T11:49:50.530Z,91.10
2022-12-15T11:50:51.073Z,86.20
2022-12-15T11:51:50.470Z,89.60
2022-12-15T11:52:50.487Z,91.20
2022-12-15T11:53:50.510Z,94.90
2022-12-15T11:54:50.456Z,90.50
2022-12-15T11:55:50.441Z,89.70
2022-12-15T11:56:50.426Z,92.70
2022-12-15T11:57:50.593Z,91.90
2022-12-15T11:58:50.479Z,90.60
2022-12-15T11:59:50.441Z,106.50
2022-12-15T12:00:50.459Z,137.80
2022-12-15T12:01:57.114Z,85.80
2022-12-15T12:02:52.443Z,85.30
2022-12-15T12:03:50.399Z,89.80
2022-12-15T12:04:50.853Z,90.30
2022-12-15T12:05:50.424Z,91.90
2022-12-15T12:06:50.477Z,88.80
2022-12-15T12:07:50.388Z,90.60
2022-12-15T12:08:51.187Z,90.40
2022-12-15T12:09:50.361Z,87.80
2022-12-15T12:10:50.457Z,93.20
2022-12-15T12:11:50.449Z,93.30
2022-12-15T12:12:50.638Z,89.50
2022-12-15T12:13:50.448Z,90.70
2022-12-15T12:14:50.778Z,88.20
2022-12-15T12:15:50.366Z,90.20
2022-12-15T12:16:50.384Z,90.40
2022-12-15T12:17:50.326Z,95.70
2022-12-15T12:18:50.369Z,92.30
2022-12-15T12:19:50.797Z,85.90
2022-12-15T12:20:50.403Z,89.60
2022-12-15T12:21:50.974Z,83.80
2022-12-15T12:22:50.651Z,81.50
2022-12-15T12:23:50.338Z,84.90
2022-12-15T12:25:51.283Z,82.70
2022-12-15T12:26:50.382Z,79.20
2022-12-15T12:27:50.530Z,82.20
2022-12-15T12:28:50.452Z,78.90
2022-12-15T12:29:50.256Z,80.00
2022-12-15T12:30:50.610Z,79.50
2022-12-15T12:31:50.738Z,91.50
2022-12-15T12:32:50.515Z,86.20
2022-12-15T12:33:50.233Z,89.60
2022-12-15T12:34:51.105Z,94.90
2022-12-15T12:35:50.232Z,90.70
2022-12-15T12:36:50.220Z,77.90
2022-12-15T12:37:50.233Z,77.70
2022-12-15T12:38:50.958Z,79.60
2022-12-15T12:39:50.187Z,80.60
2022-12-15T12:40:50.320Z,81.50
2022-12-15T12:41:50.175Z,86.20
2022-12-15T12:42:50.400Z,82.20
2022-12-15T12:43:50.568Z,82.60
2022-12-15T12:44:50.158Z,86.90
2022-12-15T12:45:50.403Z,83.10
2022-12-15T12:46:50.596Z,80.30
2022-12-15T12:47:50.177Z,78.40
2022-12-15T12:48:50.182Z,80.00
2022-12-15T12:49:50.419Z,82.80
2022-12-15T12:50:50.586Z,80.90
2022-12-15T12:51:50.130Z,77.30
2022-12-15T12:52:50.319Z,79.90
2022-12-15T12:53:50.317Z,76.10
2022-12-15T12:54:50.300Z,78.30
2022-12-15T12:55:50.094Z,82.40